sensor_id;sensor_type;location;lat;lon;timestamp;P1;durP1;ratioP1;P2;durP2;ratioP2
31384;SDS011;18016;49.788;8.742;2023-02-15T00:00:19;51.83;;;17.52;;
31384;SDS011;18016;49.788;8.742;2023-02-15T00:02:46;47.00;;;17.95;;
31384;SDS011;18016;49.788;8.742;2023-02-15T00:05:11;32.50;;;17.83;;
31384;SDS011;18016;49.788;8.742;2023-02-15T00:07:36;39.00;;;18.85;;
31384;SDS011;18016;49.788;8.742;2023-02-15T00:10:02;32.30;;;16.98;;
31384;SDS011;18016;49.788;8.742;2023-02-15T00:12:27;32.33;;;17.35;;
31384;SDS011;18016;49.788;8.742;2023-02-15T00:14:53;39.57;;;17.73;;
31384;SDS011;18016;49.788;8.742;2023-02-15T00:17:18;40.67;;;18.20;;
31384;SDS011;18016;49.788;8.742;2023-02-15T00:19:43;35.88;;;16.98;;
31384;SDS011;18016;49.788;8.742;2023-02-15T00:22:08;46.40;;;17.10;;
31384;SDS011;18016;49.788;8.742;2023-02-15T00:24:33;32.87;;;16.77;;
31384;SDS011;18016;49.788;8.742;2023-02-15T00:26:58;180.87;;;19.40;;
31384;SDS011;18016;49.788;8.742;2023-02-15T00:29:24;31.58;;;17.55;;
31384;SDS011;18016;49.788;8.742;2023-02-15T00:31:50;34.60;;;18.05;;
31384;SDS011;18016;49.788;8.742;2023-02-15T00:34:20;40.67;;;16.88;;
31384;SDS011;18016;49.788;8.742;2023-02-15T00:36:45;33.00;;;16.90;;
31384;SDS011;18016;49.788;8.742;2023-02-15T00:39:11;41.97;;;17.58;;
31384;SDS011;18016;49.788;8.742;2023-02-15T00:41:36;91.93;;;18.60;;
31384;SDS011;18016;49.788;8.742;2023-02-15T00:44:02;33.67;;;16.77;;
31384;SDS011;18016;49.788;8.742;2023-02-15T00:46:27;45.35;;;18.95;;
31384;SDS011;18016;49.788;8.742;2023-02-15T00:48:52;53.10;;;18.30;;
31384;SDS011;18016;49.788;8.742;2023-02-15T00:51:17;46.08;;;19.05;;
31384;SDS011;18016;49.788;8.742;2023-02-15T00:53:43;41.15;;;18.95;;
31384;SDS011;18016;49.788;8.742;2023-02-15T00:56:09;120.28;;;20.98;;
31384;SDS011;18016;49.788;8.742;2023-02-15T00:58:34;47.92;;;17.85;;
31384;SDS011;18016;49.788;8.742;2023-02-15T01:01:03;40.43;;;18.27;;
31384;SDS011;18016;49.788;8.742;2023-02-15T01:03:30;51.00;;;19.02;;
31384;SDS011;18016;49.788;8.742;2023-02-15T01:05:55;59.00;;;18.37;;
31384;SDS011;18016;49.788;8.742;2023-02-15T01:08:20;66.27;;;18.43;;
31384;SDS011;18016;49.788;8.742;2023-02-15T01:10:45;63.58;;;18.98;;
31384;SDS011;18016;49.788;8.742;2023-02-15T01:13:12;99.60;;;18.70;;
31384;SDS011;18016;49.788;8.742;2023-02-15T01:15:37;79.20;;;19.80;;
31384;SDS011;18016;49.788;8.742;2023-02-15T01:18:02;53.45;;;19.15;;
31384;SDS011;18016;49.788;8.742;2023-02-15T01:20:28;49.00;;;18.55;;
31384;SDS011;18016;49.788;8.742;2023-02-15T01:22:54;35.13;;;19.50;;
31384;SDS011;18016;49.788;8.742;2023-02-15T01:25:20;114.78;;;20.05;;
31384;SDS011;18016;49.788;8.742;2023-02-15T01:27:45;37.88;;;18.38;;
31384;SDS011;18016;49.788;8.742;2023-02-15T01:30:11;173.43;;;21.60;;
31384;SDS011;18016;49.788;8.742;2023-02-15T01:32:36;177.20;;;20.55;;
31384;SDS011;18016;49.788;8.742;2023-02-15T01:35:01;55.03;;;19.20;;
31384;SDS011;18016;49.788;8.742;2023-02-15T01:37:26;95.13;;;19.40;;
31384;SDS011;18016;49.788;8.742;2023-02-15T01:39:52;32.05;;;17.42;;
31384;SDS011;18016;49.788;8.742;2023-02-15T01:42:24;59.25;;;18.77;;
31384;SDS011;18016;49.788;8.742;2023-02-15T01:47:19;63.57;;;18.13;;
31384;SDS011;18016;49.788;8.742;2023-02-15T01:49:46;39.50;;;16.77;;
31384;SDS011;18016;49.788;8.742;2023-02-15T01:52:12;176.02;;;21.02;;
31384;SDS011;18016;49.788;8.742;2023-02-15T01:54:39;73.45;;;19.70;;
31384;SDS011;18016;49.788;8.742;2023-02-15T01:57:07;108.40;;;20.17;;
31384;SDS011;18016;49.788;8.742;2023-02-15T01:59:34;60.33;;;19.33;;
31384;SDS011;18016;49.788;8.742;2023-02-15T02:02:00;34.58;;;17.65;;
31384;SDS011;18016;49.788;8.742;2023-02-15T02:04:37;44.97;;;17.95;;
31384;SDS011;18016;49.788;8.742;2023-02-15T02:07:03;47.25;;;17.38;;
31384;SDS011;18016;49.788;8.742;2023-02-15T02:09:28;29.25;;;16.92;;
31384;SDS011;18016;49.788;8.742;2023-02-15T02:11:54;32.47;;;17.13;;
31384;SDS011;18016;49.788;8.742;2023-02-15T02:14:19;70.53;;;18.77;;
31384;SDS011;18016;49.788;8.742;2023-02-15T02:24:48;41.08;;;18.52;;
31384;SDS011;18016;49.788;8.742;2023-02-15T02:27:23;44.97;;;17.65;;
31384;SDS011;18016;49.788;8.742;2023-02-15T02:35:01;37.90;;;16.52;;
31384;SDS011;18016;49.788;8.742;2023-02-15T02:40:54;176.80;;;20.27;;
31384;SDS011;18016;49.788;8.742;2023-02-15T02:43:21;425.20;;;27.10;;
31384;SDS011;18016;49.788;8.742;2023-02-15T02:45:57;262.08;;;21.70;;
31384;SDS011;18016;49.788;8.742;2023-02-15T02:48:24;404.92;;;25.65;;
31384;SDS011;18016;49.788;8.742;2023-02-15T02:50:50;175.23;;;20.45;;
31384;SDS011;18016;49.788;8.742;2023-02-15T02:53:16;398.70;;;25.40;;
31384;SDS011;18016;49.788;8.742;2023-02-15T02:55:49;598.23;;;31.23;;
31384;SDS011;18016;49.788;8.742;2023-02-15T02:58:20;113.30;;;20.35;;
31384;SDS011;18016;49.788;8.742;2023-02-15T03:01:05;86.40;;;18.35;;
31384;SDS011;18016;49.788;8.742;2023-02-15T03:03:50;242.30;;;23.85;;
31384;SDS011;18016;49.788;8.742;2023-02-15T03:06:18;91.18;;;17.13;;
31384;SDS011;18016;49.788;8.742;2023-02-15T03:08:45;131.05;;;18.30;;
31384;SDS011;18016;49.788;8.742;2023-02-15T03:11:11;77.28;;;17.95;;
31384;SDS011;18016;49.788;8.742;2023-02-15T03:13:36;333.67;;;23.58;;
31384;SDS011;18016;49.788;8.742;2023-02-15T03:16:02;134.15;;;17.60;;
31384;SDS011;18016;49.788;8.742;2023-02-15T03:21:27;37.88;;;15.27;;
31384;SDS011;18016;49.788;8.742;2023-02-15T03:24:14;246.73;;;20.15;;
31384;SDS011;18016;49.788;8.742;2023-02-15T03:26:42;89.18;;;13.70;;
31384;SDS011;18016;49.788;8.742;2023-02-15T03:29:07;257.65;;;17.92;;
31384;SDS011;18016;49.788;8.742;2023-02-15T03:31:35;184.10;;;16.30;;
31384;SDS011;18016;49.788;8.742;2023-02-15T03:34:03;326.17;;;22.05;;
31384;SDS011;18016;49.788;8.742;2023-02-15T03:36:35;345.42;;;21.23;;
31384;SDS011;18016;49.788;8.742;2023-02-15T03:39:10;298.90;;;21.13;;
31384;SDS011;18016;49.788;8.742;2023-02-15T03:41:43;204.07;;;20.13;;
31384;SDS011;18016;49.788;8.742;2023-02-15T03:44:20;184.65;;;20.45;;
31384;SDS011;18016;49.788;8.742;2023-02-15T03:49:23;153.03;;;18.90;;
31384;SDS011;18016;49.788;8.742;2023-02-15T03:51:50;131.77;;;17.48;;
31384;SDS011;18016;49.788;8.742;2023-02-15T03:54:25;221.70;;;19.67;;
31384;SDS011;18016;49.788;8.742;2023-02-15T03:57:10;200.32;;;19.10;;
31384;SDS011;18016;49.788;8.742;2023-02-15T04:05:24;257.52;;;20.60;;
31384;SDS011;18016;49.788;8.742;2023-02-15T04:07:49;193.50;;;19.35;;
31384;SDS011;18016;49.788;8.742;2023-02-15T04:10:14;97.43;;;19.83;;
31384;SDS011;18016;49.788;8.742;2023-02-15T04:12:58;66.53;;;18.33;;
31384;SDS011;18016;49.788;8.742;2023-02-15T04:15:23;158.07;;;21.77;;
31384;SDS011;18016;49.788;8.742;2023-02-15T04:18:07;87.90;;;18.60;;
31384;SDS011;18016;49.788;8.742;2023-02-15T04:20:32;45.00;;;15.82;;
31384;SDS011;18016;49.788;8.742;2023-02-15T04:23:16;112.20;;;18.00;;
31384;SDS011;18016;49.788;8.742;2023-02-15T04:26:02;137.98;;;18.27;;
31384;SDS011;18016;49.788;8.742;2023-02-15T04:28:28;63.30;;;15.82;;
31384;SDS011;18016;49.788;8.742;2023-02-15T04:30:53;51.33;;;16.17;;
31384;SDS011;18016;49.788;8.742;2023-02-15T04:33:18;87.53;;;15.87;;
31384;SDS011;18016;49.788;8.742;2023-02-15T04:35:43;74.23;;;16.03;;
31384;SDS011;18016;49.788;8.742;2023-02-15T04:38:10;134.65;;;17.63;;
31384;SDS011;18016;49.788;8.742;2023-02-15T04:40:35;131.23;;;18.13;;
31384;SDS011;18016;49.788;8.742;2023-02-15T04:43:00;140.33;;;17.43;;
31384;SDS011;18016;49.788;8.742;2023-02-15T04:45:26;142.05;;;17.35;;
31384;SDS011;18016;49.788;8.742;2023-02-15T04:47:52;141.90;;;18.85;;
31384;SDS011;18016;49.788;8.742;2023-02-15T04:50:17;77.17;;;17.30;;
31384;SDS011;18016;49.788;8.742;2023-02-15T04:52:42;58.85;;;18.17;;
31384;SDS011;18016;49.788;8.742;2023-02-15T04:55:07;65.33;;;20.10;;
31384;SDS011;18016;49.788;8.742;2023-02-15T04:57:32;55.57;;;19.13;;
31384;SDS011;18016;49.788;8.742;2023-02-15T04:59:57;69.05;;;19.50;;
31384;SDS011;18016;49.788;8.742;2023-02-15T05:02:24;57.50;;;18.40;;
31384;SDS011;18016;49.788;8.742;2023-02-15T05:04:49;113.43;;;17.60;;
31384;SDS011;18016;49.788;8.742;2023-02-15T05:07:14;113.07;;;18.17;;
31384;SDS011;18016;49.788;8.742;2023-02-15T05:09:39;102.68;;;19.60;;
31384;SDS011;18016;49.788;8.742;2023-02-15T05:12:05;186.63;;;19.98;;
31384;SDS011;18016;49.788;8.742;2023-02-15T05:14:30;106.80;;;17.40;;
31384;SDS011;18016;49.788;8.742;2023-02-15T05:16:55;90.93;;;17.33;;
31384;SDS011;18016;49.788;8.742;2023-02-15T05:19:20;43.67;;;16.17;;
31384;SDS011;18016;49.788;8.742;2023-02-15T05:21:48;115.47;;;17.88;;
31384;SDS011;18016;49.788;8.742;2023-02-15T05:24:13;51.13;;;16.17;;
31384;SDS011;18016;49.788;8.742;2023-02-15T05:26:57;111.60;;;18.02;;
31384;SDS011;18016;49.788;8.742;2023-02-15T05:29:41;63.08;;;15.50;;
31384;SDS011;18016;49.788;8.742;2023-02-15T05:32:06;31.60;;;15.73;;
31384;SDS011;18016;49.788;8.742;2023-02-15T05:34:31;33.38;;;17.20;;
31384;SDS011;18016;49.788;8.742;2023-02-15T05:36:56;29.17;;;14.77;;
31384;SDS011;18016;49.788;8.742;2023-02-15T05:39:22;29.65;;;14.88;;
31384;SDS011;18016;49.788;8.742;2023-02-15T05:41:47;31.33;;;14.57;;
31384;SDS011;18016;49.788;8.742;2023-02-15T05:44:12;32.90;;;14.97;;
31384;SDS011;18016;49.788;8.742;2023-02-15T05:46:37;27.33;;;14.47;;
31384;SDS011;18016;49.788;8.742;2023-02-15T05:49:02;49.93;;;16.57;;
31384;SDS011;18016;49.788;8.742;2023-02-15T05:51:28;38.10;;;16.10;;
31384;SDS011;18016;49.788;8.742;2023-02-15T05:53:53;39.10;;;16.10;;
31384;SDS011;18016;49.788;8.742;2023-02-15T05:56:18;52.80;;;17.43;;
31384;SDS011;18016;49.788;8.742;2023-02-15T05:58:43;30.53;;;16.37;;
31384;SDS011;18016;49.788;8.742;2023-02-15T06:01:12;42.23;;;16.23;;
31384;SDS011;18016;49.788;8.742;2023-02-15T06:03:38;33.10;;;14.55;;
31384;SDS011;18016;49.788;8.742;2023-02-15T06:06:03;63.47;;;16.48;;
31384;SDS011;18016;49.788;8.742;2023-02-15T06:08:29;62.25;;;16.70;;
31384;SDS011;18016;49.788;8.742;2023-02-15T06:10:55;54.35;;;15.27;;
31384;SDS011;18016;49.788;8.742;2023-02-15T06:13:20;44.13;;;15.10;;
31384;SDS011;18016;49.788;8.742;2023-02-15T06:15:46;65.53;;;16.98;;
31384;SDS011;18016;49.788;8.742;2023-02-15T06:18:11;29.90;;;15.63;;
31384;SDS011;18016;49.788;8.742;2023-02-15T06:20:36;34.10;;;15.80;;
31384;SDS011;18016;49.788;8.742;2023-02-15T06:23:01;37.73;;;15.27;;
31384;SDS011;18016;49.788;8.742;2023-02-15T06:25:26;32.93;;;15.43;;
31384;SDS011;18016;49.788;8.742;2023-02-15T06:27:52;29.13;;;14.65;;
31384;SDS011;18016;49.788;8.742;2023-02-15T06:30:17;32.00;;;16.63;;
31384;SDS011;18016;49.788;8.742;2023-02-15T06:32:42;32.60;;;16.80;;
31384;SDS011;18016;49.788;8.742;2023-02-15T06:35:07;37.13;;;17.37;;
31384;SDS011;18016;49.788;8.742;2023-02-15T06:37:33;31.50;;;16.50;;
31384;SDS011;18016;49.788;8.742;2023-02-15T06:39:58;36.40;;;17.80;;
31384;SDS011;18016;49.788;8.742;2023-02-15T06:42:23;48.27;;;20.73;;
31384;SDS011;18016;49.788;8.742;2023-02-15T06:44:48;53.75;;;17.20;;
31384;SDS011;18016;49.788;8.742;2023-02-15T06:47:14;53.77;;;17.17;;
31384;SDS011;18016;49.788;8.742;2023-02-15T06:49:39;58.88;;;17.77;;
31384;SDS011;18016;49.788;8.742;2023-02-15T06:52:04;50.97;;;18.00;;
31384;SDS011;18016;49.788;8.742;2023-02-15T06:54:29;58.63;;;18.37;;
31384;SDS011;18016;49.788;8.742;2023-02-15T06:56:54;96.70;;;19.50;;
31384;SDS011;18016;49.788;8.742;2023-02-15T06:59:20;78.43;;;18.70;;
31384;SDS011;18016;49.788;8.742;2023-02-15T07:01:45;73.60;;;18.40;;
31384;SDS011;18016;49.788;8.742;2023-02-15T07:04:10;57.63;;;18.70;;
31384;SDS011;18016;49.788;8.742;2023-02-15T07:06:35;61.47;;;19.33;;
31384;SDS011;18016;49.788;8.742;2023-02-15T07:09:01;109.22;;;19.13;;
31384;SDS011;18016;49.788;8.742;2023-02-15T07:11:26;36.30;;;17.70;;
31384;SDS011;18016;49.788;8.742;2023-02-15T07:14:10;38.85;;;18.60;;
31384;SDS011;18016;49.788;8.742;2023-02-15T07:16:35;38.65;;;17.98;;
31384;SDS011;18016;49.788;8.742;2023-02-15T07:19:00;44.70;;;21.15;;
31384;SDS011;18016;49.788;8.742;2023-02-15T07:21:26;39.22;;;18.80;;
31384;SDS011;18016;49.788;8.742;2023-02-15T07:23:51;40.33;;;17.33;;
31384;SDS011;18016;49.788;8.742;2023-02-15T07:26:17;41.47;;;17.52;;
31384;SDS011;18016;49.788;8.742;2023-02-15T07:28:42;39.53;;;17.65;;
31384;SDS011;18016;49.788;8.742;2023-02-15T07:31:07;41.47;;;17.80;;
31384;SDS011;18016;49.788;8.742;2023-02-15T07:33:33;40.77;;;17.90;;
31384;SDS011;18016;49.788;8.742;2023-02-15T07:35:59;48.63;;;18.83;;
31384;SDS011;18016;49.788;8.742;2023-02-15T07:38:26;42.90;;;18.25;;
31384;SDS011;18016;49.788;8.742;2023-02-15T07:40:51;53.88;;;26.05;;
31384;SDS011;18016;49.788;8.742;2023-02-15T07:43:22;55.90;;;25.38;;
31384;SDS011;18016;49.788;8.742;2023-02-15T07:45:47;49.57;;;20.87;;
31384;SDS011;18016;49.788;8.742;2023-02-15T07:48:12;230.10;;;100.50;;
31384;SDS011;18016;49.788;8.742;2023-02-15T07:50:37;114.40;;;49.20;;
31384;SDS011;18016;49.788;8.742;2023-02-15T07:53:02;53.97;;;23.77;;
31384;SDS011;18016;49.788;8.742;2023-02-15T07:55:28;202.27;;;87.85;;
31384;SDS011;18016;49.788;8.742;2023-02-15T07:57:53;122.78;;;51.75;;
31384;SDS011;18016;49.788;8.742;2023-02-15T08:00:19;44.67;;;19.60;;
31384;SDS011;18016;49.788;8.742;2023-02-15T08:02:48;48.20;;;19.50;;
31384;SDS011;18016;49.788;8.742;2023-02-15T08:05:34;142.25;;;58.50;;
31384;SDS011;18016;49.788;8.742;2023-02-15T08:07:59;291.93;;;122.50;;
31384;SDS011;18016;49.788;8.742;2023-02-15T08:10:24;50.87;;;20.73;;
31384;SDS011;18016;49.788;8.742;2023-02-15T08:13:09;42.80;;;18.98;;
31384;SDS011;18016;49.788;8.742;2023-02-15T08:15:34;45.67;;;18.60;;
31384;SDS011;18016;49.788;8.742;2023-02-15T08:17:59;55.93;;;20.23;;
31384;SDS011;18016;49.788;8.742;2023-02-15T08:20:25;49.00;;;18.97;;
31384;SDS011;18016;49.788;8.742;2023-02-15T08:22:50;56.70;;;20.77;;
31384;SDS011;18016;49.788;8.742;2023-02-15T08:25:15;53.80;;;20.03;;
31384;SDS011;18016;49.788;8.742;2023-02-15T08:27:40;50.28;;;18.85;;
31384;SDS011;18016;49.788;8.742;2023-02-15T08:30:06;65.60;;;20.57;;
31384;SDS011;18016;49.788;8.742;2023-02-15T08:32:31;47.80;;;19.08;;
31384;SDS011;18016;49.788;8.742;2023-02-15T08:34:56;76.43;;;38.37;;
31384;SDS011;18016;49.788;8.742;2023-02-15T08:37:21;89.50;;;40.33;;
31384;SDS011;18016;49.788;8.742;2023-02-15T08:39:47;53.43;;;23.63;;
31384;SDS011;18016;49.788;8.742;2023-02-15T08:42:12;42.20;;;17.73;;
31384;SDS011;18016;49.788;8.742;2023-02-15T08:44:37;43.03;;;17.93;;
31384;SDS011;18016;49.788;8.742;2023-02-15T08:47:02;83.60;;;39.40;;
31384;SDS011;18016;49.788;8.742;2023-02-15T08:49:28;72.22;;;33.50;;
31384;SDS011;18016;49.788;8.742;2023-02-15T08:51:53;41.43;;;18.80;;
31384;SDS011;18016;49.788;8.742;2023-02-15T08:54:20;39.17;;;18.10;;
31384;SDS011;18016;49.788;8.742;2023-02-15T08:56:45;34.45;;;17.30;;
31384;SDS011;18016;49.788;8.742;2023-02-15T08:59:12;39.53;;;18.45;;
31384;SDS011;18016;49.788;8.742;2023-02-15T09:01:37;39.75;;;18.60;;
31384;SDS011;18016;49.788;8.742;2023-02-15T09:04:06;36.73;;;17.60;;
31384;SDS011;18016;49.788;8.742;2023-02-15T09:06:35;39.83;;;17.98;;
31384;SDS011;18016;49.788;8.742;2023-02-15T09:09:00;42.85;;;19.05;;
31384;SDS011;18016;49.788;8.742;2023-02-15T09:11:30;101.10;;;44.67;;
31384;SDS011;18016;49.788;8.742;2023-02-15T09:13:56;103.55;;;44.72;;
31384;SDS011;18016;49.788;8.742;2023-02-15T09:16:23;66.35;;;28.42;;
31384;SDS011;18016;49.788;8.742;2023-02-15T09:18:48;50.88;;;24.08;;
31384;SDS011;18016;49.788;8.742;2023-02-15T09:21:14;47.35;;;20.98;;
31384;SDS011;18016;49.788;8.742;2023-02-15T09:23:43;77.55;;;23.58;;
31384;SDS011;18016;49.788;8.742;2023-02-15T09:26:10;56.63;;;23.17;;
31384;SDS011;18016;49.788;8.742;2023-02-15T09:28:35;40.05;;;18.92;;
31384;SDS011;18016;49.788;8.742;2023-02-15T09:31:05;48.28;;;20.35;;
31384;SDS011;18016;49.788;8.742;2023-02-15T09:33:30;54.60;;;24.60;;
31384;SDS011;18016;49.788;8.742;2023-02-15T09:35:56;49.90;;;23.38;;
31384;SDS011;18016;49.788;8.742;2023-02-15T09:38:21;48.25;;;21.38;;
31384;SDS011;18016;49.788;8.742;2023-02-15T09:40:49;61.00;;;27.20;;
31384;SDS011;18016;49.788;8.742;2023-02-15T09:43:20;67.03;;;29.52;;
31384;SDS011;18016;49.788;8.742;2023-02-15T09:46:06;55.08;;;26.20;;
31384;SDS011;18016;49.788;8.742;2023-02-15T09:54:09;71.45;;;30.55;;
31384;SDS011;18016;49.788;8.742;2023-02-15T09:56:48;42.47;;;20.80;;
31384;SDS011;18016;49.788;8.742;2023-02-15T09:59:30;40.20;;;20.17;;
31384;SDS011;18016;49.788;8.742;2023-02-15T10:02:05;37.92;;;19.52;;
31384;SDS011;18016;49.788;8.742;2023-02-15T10:09:56;35.05;;;18.90;;
31384;SDS011;18016;49.788;8.742;2023-02-15T10:22:50;35.22;;;18.05;;
31384;SDS011;18016;49.788;8.742;2023-02-15T10:25:31;34.05;;;19.27;;
31384;SDS011;18016;49.788;8.742;2023-02-15T10:28:04;35.15;;;18.90;;
31384;SDS011;18016;49.788;8.742;2023-02-15T10:30:42;34.35;;;19.17;;
31384;SDS011;18016;49.788;8.742;2023-02-15T10:33:15;35.65;;;19.33;;
31384;SDS011;18016;49.788;8.742;2023-02-15T10:48:31;32.22;;;17.38;;
31384;SDS011;18016;49.788;8.742;2023-02-15T10:50:59;33.90;;;18.48;;
31384;SDS011;18016;49.788;8.742;2023-02-15T10:54:27;37.22;;;17.88;;
31384;SDS011;18016;49.788;8.742;2023-02-15T11:01:37;40.17;;;22.60;;
31384;SDS011;18016;49.788;8.742;2023-02-15T11:06:31;36.78;;;18.35;;
31384;SDS011;18016;49.788;8.742;2023-02-15T11:09:01;38.28;;;20.02;;
31384;SDS011;18016;49.788;8.742;2023-02-15T11:11:28;33.47;;;17.02;;
31384;SDS011;18016;49.788;8.742;2023-02-15T11:13:56;35.95;;;19.75;;
31384;SDS011;18016;49.788;8.742;2023-02-15T11:16:24;39.00;;;18.85;;
31384;SDS011;18016;49.788;8.742;2023-02-15T11:18:55;34.60;;;19.50;;
31384;SDS011;18016;49.788;8.742;2023-02-15T11:21:22;36.83;;;18.60;;
31384;SDS011;18016;49.788;8.742;2023-02-15T11:23:49;43.55;;;22.20;;
31384;SDS011;18016;49.788;8.742;2023-02-15T11:31:26;43.63;;;21.47;;
31384;SDS011;18016;49.788;8.742;2023-02-15T11:33:55;49.30;;;24.40;;
31384;SDS011;18016;49.788;8.742;2023-02-15T11:36:22;54.08;;;26.00;;
31384;SDS011;18016;49.788;8.742;2023-02-15T11:38:48;53.95;;;25.80;;
31384;SDS011;18016;49.788;8.742;2023-02-15T11:41:18;58.80;;;29.58;;
31384;SDS011;18016;49.788;8.742;2023-02-15T11:43:59;59.08;;;28.50;;
31384;SDS011;18016;49.788;8.742;2023-02-15T11:46:25;59.15;;;28.25;;
31384;SDS011;18016;49.788;8.742;2023-02-15T11:48:51;57.90;;;27.87;;
31384;SDS011;18016;49.788;8.742;2023-02-15T11:51:20;55.50;;;26.35;;
31384;SDS011;18016;49.788;8.742;2023-02-15T11:53:46;50.63;;;27.08;;
31384;SDS011;18016;49.788;8.742;2023-02-15T11:56:15;53.60;;;26.60;;
31384;SDS011;18016;49.788;8.742;2023-02-15T11:58:48;48.53;;;24.98;;
31384;SDS011;18016;49.788;8.742;2023-02-15T12:03:53;59.70;;;28.65;;
31384;SDS011;18016;49.788;8.742;2023-02-15T12:08:51;51.75;;;25.70;;
31384;SDS011;18016;49.788;8.742;2023-02-15T12:11:19;55.72;;;26.05;;
31384;SDS011;18016;49.788;8.742;2023-02-15T12:13:55;46.50;;;24.00;;
31384;SDS011;18016;49.788;8.742;2023-02-15T12:16:21;45.75;;;23.25;;
31384;SDS011;18016;49.788;8.742;2023-02-15T12:18:46;45.45;;;23.65;;
31384;SDS011;18016;49.788;8.742;2023-02-15T12:21:12;43.17;;;23.90;;
31384;SDS011;18016;49.788;8.742;2023-02-15T12:23:46;54.30;;;25.80;;
31384;SDS011;18016;49.788;8.742;2023-02-15T12:26:13;45.22;;;22.95;;
31384;SDS011;18016;49.788;8.742;2023-02-15T12:28:41;47.80;;;24.88;;
31384;SDS011;18016;49.788;8.742;2023-02-15T12:31:17;41.47;;;23.15;;
31384;SDS011;18016;49.788;8.742;2023-02-15T12:33:44;45.22;;;24.00;;
31384;SDS011;18016;49.788;8.742;2023-02-15T12:36:11;40.50;;;23.13;;
31384;SDS011;18016;49.788;8.742;2023-02-15T12:38:37;39.85;;;21.65;;
31384;SDS011;18016;49.788;8.742;2023-02-15T12:41:03;36.60;;;22.88;;
31384;SDS011;18016;49.788;8.742;2023-02-15T12:43:31;42.17;;;23.00;;
31384;SDS011;18016;49.788;8.742;2023-02-15T12:48:41;37.30;;;21.83;;
31384;SDS011;18016;49.788;8.742;2023-02-15T12:51:07;43.67;;;23.92;;
31384;SDS011;18016;49.788;8.742;2023-02-15T12:53:33;40.80;;;23.35;;
31384;SDS011;18016;49.788;8.742;2023-02-15T12:56:00;47.95;;;23.25;;
31384;SDS011;18016;49.788;8.742;2023-02-15T12:58:35;43.60;;;26.13;;
31384;SDS011;18016;49.788;8.742;2023-02-15T13:01:17;42.13;;;24.70;;
31384;SDS011;18016;49.788;8.742;2023-02-15T13:06:28;37.35;;;22.65;;
31384;SDS011;18016;49.788;8.742;2023-02-15T13:08:55;37.00;;;22.52;;
31384;SDS011;18016;49.788;8.742;2023-02-15T13:11:31;34.30;;;21.48;;
31384;SDS011;18016;49.788;8.742;2023-02-15T13:14:03;36.40;;;21.85;;
31384;SDS011;18016;49.788;8.742;2023-02-15T13:16:38;47.28;;;24.70;;
31384;SDS011;18016;49.788;8.742;2023-02-15T13:21:56;35.30;;;21.77;;
31384;SDS011;18016;49.788;8.742;2023-02-15T13:24:41;51.70;;;24.63;;
31384;SDS011;18016;49.788;8.742;2023-02-15T13:27:09;36.08;;;21.67;;
31384;SDS011;18016;49.788;8.742;2023-02-15T13:29:37;35.53;;;21.17;;
31384;SDS011;18016;49.788;8.742;2023-02-15T13:34:38;40.38;;;22.38;;
31384;SDS011;18016;49.788;8.742;2023-02-15T13:49:50;36.70;;;22.40;;
31384;SDS011;18016;49.788;8.742;2023-02-15T13:52:18;42.90;;;24.70;;
31384;SDS011;18016;49.788;8.742;2023-02-15T13:57:32;40.58;;;24.17;;
31384;SDS011;18016;49.788;8.742;2023-02-15T14:05:29;40.50;;;23.52;;
31384;SDS011;18016;49.788;8.742;2023-02-15T14:10:45;40.70;;;23.02;;
31384;SDS011;18016;49.788;8.742;2023-02-15T14:23:27;42.38;;;23.58;;
31384;SDS011;18016;49.788;8.742;2023-02-15T14:26:03;43.90;;;24.13;;
31384;SDS011;18016;49.788;8.742;2023-02-15T14:30:56;44.60;;;25.15;;
31384;SDS011;18016;49.788;8.742;2023-02-15T14:33:32;49.72;;;26.02;;
31384;SDS011;18016;49.788;8.742;2023-02-15T14:35:59;43.97;;;25.02;;
31384;SDS011;18016;49.788;8.742;2023-02-15T14:38:32;44.20;;;24.77;;
31384;SDS011;18016;49.788;8.742;2023-02-15T14:41:01;42.47;;;24.03;;
31384;SDS011;18016;49.788;8.742;2023-02-15T14:45:55;44.77;;;25.83;;
31384;SDS011;18016;49.788;8.742;2023-02-15T14:50:52;43.30;;;24.92;;
31384;SDS011;18016;49.788;8.742;2023-02-15T14:58:35;53.10;;;26.83;;
31384;SDS011;18016;49.788;8.742;2023-02-15T15:01:07;53.80;;;27.90;;
31384;SDS011;18016;49.788;8.742;2023-02-15T15:03:33;48.78;;;27.00;;
31384;SDS011;18016;49.788;8.742;2023-02-15T15:06:00;45.35;;;24.98;;
31384;SDS011;18016;49.788;8.742;2023-02-15T15:08:29;45.15;;;25.40;;
31384;SDS011;18016;49.788;8.742;2023-02-15T15:10:57;47.45;;;25.48;;
31384;SDS011;18016;49.788;8.742;2023-02-15T15:13:52;47.53;;;25.90;;
31384;SDS011;18016;49.788;8.742;2023-02-15T15:16:31;50.80;;;27.02;;
31384;SDS011;18016;49.788;8.742;2023-02-15T15:18:56;57.10;;;29.77;;
31384;SDS011;18016;49.788;8.742;2023-02-15T15:24:06;62.25;;;31.15;;
31384;SDS011;18016;49.788;8.742;2023-02-15T15:26:31;58.03;;;30.53;;
31384;SDS011;18016;49.788;8.742;2023-02-15T15:29:05;58.15;;;29.20;;
31384;SDS011;18016;49.788;8.742;2023-02-15T15:31:50;58.38;;;31.98;;
31384;SDS011;18016;49.788;8.742;2023-02-15T15:37:05;53.10;;;29.02;;
31384;SDS011;18016;49.788;8.742;2023-02-15T15:49:41;61.97;;;32.47;;
31384;SDS011;18016;49.788;8.742;2023-02-15T15:52:17;60.58;;;32.20;;
31384;SDS011;18016;49.788;8.742;2023-02-15T15:54:43;58.70;;;30.05;;
31384;SDS011;18016;49.788;8.742;2023-02-15T15:57:15;56.50;;;30.00;;
31384;SDS011;18016;49.788;8.742;2023-02-15T15:59:43;59.03;;;31.33;;
31384;SDS011;18016;49.788;8.742;2023-02-15T16:02:15;57.70;;;31.08;;
31384;SDS011;18016;49.788;8.742;2023-02-15T16:04:41;57.65;;;31.60;;
31384;SDS011;18016;49.788;8.742;2023-02-15T16:09:41;61.42;;;33.13;;
31384;SDS011;18016;49.788;8.742;2023-02-15T16:12:17;68.97;;;38.20;;
31384;SDS011;18016;49.788;8.742;2023-02-15T16:14:44;67.40;;;37.35;;
31384;SDS011;18016;49.788;8.742;2023-02-15T16:17:17;70.68;;;39.83;;
31384;SDS011;18016;49.788;8.742;2023-02-15T16:19:44;60.58;;;34.30;;
31384;SDS011;18016;49.788;8.742;2023-02-15T16:22:18;69.78;;;37.17;;
31384;SDS011;18016;49.788;8.742;2023-02-15T16:27:37;58.17;;;31.05;;
31384;SDS011;18016;49.788;8.742;2023-02-15T16:30:19;62.25;;;31.77;;
31384;SDS011;18016;49.788;8.742;2023-02-15T16:32:45;76.20;;;32.35;;
31384;SDS011;18016;49.788;8.742;2023-02-15T16:35:14;77.37;;;33.57;;
31384;SDS011;18016;49.788;8.742;2023-02-15T16:37:40;58.72;;;32.35;;
31384;SDS011;18016;49.788;8.742;2023-02-15T16:40:05;65.37;;;34.03;;
31384;SDS011;18016;49.788;8.742;2023-02-15T16:42:30;66.40;;;33.30;;
31384;SDS011;18016;49.788;8.742;2023-02-15T16:45:05;58.23;;;32.13;;
31384;SDS011;18016;49.788;8.742;2023-02-15T16:47:33;93.50;;;30.15;;
31384;SDS011;18016;49.788;8.742;2023-02-15T16:50:02;109.43;;;32.10;;
31384;SDS011;18016;49.788;8.742;2023-02-15T16:52:28;78.15;;;31.20;;
31384;SDS011;18016;49.788;8.742;2023-02-15T16:54:55;63.50;;;31.38;;
31384;SDS011;18016;49.788;8.742;2023-02-15T16:57:22;92.95;;;36.60;;
31384;SDS011;18016;49.788;8.742;2023-02-15T16:59:49;119.25;;;41.22;;
31384;SDS011;18016;49.788;8.742;2023-02-15T17:02:16;84.60;;;31.17;;
31384;SDS011;18016;49.788;8.742;2023-02-15T17:04:41;102.05;;;34.95;;